Time;durP1;ratioP1;P1;durP2;ratioP2;P2;SDS_P1;SDS_P2;PMS_P1;PMS_P2;Temp;Humidity;BMP_temperature;BMP_pressure;BME280_temperature;BME280_humidity;BME280_pressure;Samples;Min_cycle;Max_cycle;Signal;HPM_P1;HPM_P2
2022/08/24 00:00:25;;;;;;;3.45;3.15;;;;;;;20.24;60.16;98647.78;4087992;28;20650;-55
2022/08/24 00:02:27;;;;;;;3.03;2.65;;;;;;;20.15;60.53;98646.03;4088730;28;20572;-53
2022/08/24 00:04:29;;;;;;;4.97;3.30;;;;;;;20.10;60.73;98638.63;4104184;28;21460;-54
2022/08/24 00:06:32;;;;;;;3.42;3.13;;;;;;;20.11;60.92;98642.25;4091761;28;20312;-54
2022/08/24 00:08:35;;;;;;;4.05;3.75;;;;;;;20.10;60.85;98646.16;4089252;28;20220;-54
2022/08/24 00:10:36;;;;;;;3.47;3.17;;;;;;;20.10;60.98;98654.50;4104955;28;20214;-53
2022/08/24 00:12:39;;;;;;;3.83;3.22;;;;;;;20.08;60.88;98651.19;4104324;28;20600;-54
2022/08/24 00:14:41;;;;;;;3.65;3.35;;;;;;;20.05;60.95;98655.41;4089754;28;20207;-52
2022/08/24 00:16:43;;;;;;;3.10;2.80;;;;;;;20.00;61.12;98647.16;4086671;28;20294;-55
2022/08/24 00:18:46;;;;;;;4.13;3.15;;;;;;;19.93;61.25;98648.69;4102861;28;20214;-56
2022/08/24 00:20:49;;;;;;;3.35;3.05;;;;;;;19.80;61.39;98649.50;4086648;28;20765;-54
2022/08/24 00:22:51;;;;;;;4.45;3.40;;;;;;;19.74;61.43;98639.59;4103038;28;20206;-53
2022/08/24 00:24:53;;;;;;;4.32;3.90;;;;;;;19.71;61.58;98651.34;4102881;28;20226;-54
2022/08/24 00:26:55;;;;;;;3.60;3.30;;;;;;;19.70;61.66;98646.88;4088191;28;20713;-56
2022/08/24 00:28:57;;;;;;;8.10;3.53;;;;;;;19.63;61.81;98649.22;4087828;28;20247;-53
2022/08/24 00:30:59;;;;;;;8.90;3.40;;;;;;;19.61;61.90;98651.50;4088487;28;20223;-55
2022/08/24 00:33:01;;;;;;;3.78;3.47;;;;;;;19.62;61.79;98653.97;4104835;28;20239;-54
2022/08/24 00:35:07;;;;;;;4.03;3.60;;;;;;;19.61;61.98;98646.78;4088551;28;20219;-56
2022/08/24 00:37:09;;;;;;;4.45;3.60;;;;;;;19.63;62.10;98644.53;4089405;28;20239;-54
2022/08/24 00:39:11;;;;;;;3.58;3.35;;;;;;;19.63;62.40;98649.22;4087455;28;20667;-55
2022/08/24 00:41:14;;;;;;;4.00;3.70;;;;;;;19.53;62.53;98650.28;4087821;28;20996;-54
2022/08/24 00:43:22;;;;;;;3.72;3.13;;;;;;;19.50;62.69;98650.03;4101926;28;20692;-54
2022/08/24 00:45:24;;;;;;;3.95;3.65;;;;;;;19.47;62.93;98650.66;4086553;28;20235;-53
2022/08/24 00:47:30;;;;;;;3.53;3.22;;;;;;;19.44;63.24;98649.31;4102964;28;20243;-53
2022/08/24 00:49:40;;;;;;;4.15;3.70;;;;;;;19.42;63.19;98659.88;4089294;28;20212;-54
2022/08/24 00:51:51;;;;;;;3.88;3.50;;;;;;;19.22;63.77;98656.63;4084270;28;20262;-52
2022/08/24 00:53:56;;;;;;;3.47;3.22;;;;;;;19.23;63.57;98658.25;4103317;28;20316;-53
2022/08/24 00:56:02;;;;;;;3.80;3.45;;;;;;;19.24;63.19;98662.72;4105375;28;20762;-55
2022/08/24 00:58:10;;;;;;;3.80;3.50;;;;;;;19.19;63.41;98657.19;4068610;29;20227;-55
2022/08/24 01:00:23;;;;;;;3.55;3.22;;;;;;;19.21;63.15;98663.28;4095174;28;20218;-54
2022/08/24 01:02:30;;;;;;;4.38;3.97;;;;;;;19.19;63.34;98657.19;4084356;28;20208;-54
2022/08/24 01:04:37;;;;;;;3.80;3.17;;;;;;;19.17;63.17;98656.69;4083413;28;20266;-52
2022/08/24 01:06:38;;;;;;;3.28;3.08;;;;;;;19.19;63.22;98659.97;4101104;28;20511;-53
2022/08/24 01:08:40;;;;;;;9.13;3.45;;;;;;;19.23;63.12;98661.03;4090308;28;20203;-52
2022/08/24 01:10:49;;;;;;;3.97;3.67;;;;;;;19.11;63.15;98657.91;4088293;28;20223;-53
2022/08/24 01:12:54;;;;;;;3.45;3.22;;;;;;;19.08;63.21;98658.47;4087817;28;20234;-53
2022/08/24 01:15:04;;;;;;;3.83;3.53;;;;;;;19.04;63.29;98654.69;4082985;28;20215;-55
2022/08/24 01:19:38;;;;;;;3.58;3.28;;;;;;;19.11;63.02;98653.16;4088266;28;20207;-52
2022/08/24 01:21:49;;;;;;;3.42;3.13;;;;;;;19.11;63.25;98657.91;4087050;28;20585;-55
2022/08/24 01:23:57;;;;;;;4.78;4.22;;;;;;;19.04;63.40;98652.72;4086099;28;20218;-52
2022/08/24 01:25:59;;;;;;;5.75;3.47;;;;;;;18.99;63.62;98655.56;4085335;28;20215;-53
2022/08/24 01:28:08;;;;;;;3.67;3.38;;;;;;;18.98;63.44;98658.66;4102357;28;20237;-53
2022/08/24 01:30:12;;;;;;;3.92;3.53;;;;;;;18.94;63.52;98658.44;4086652;28;20203;-52
2022/08/24 01:32:18;;;;;;;4.20;3.67;;;;;;;18.96;63.73;98660.88;4089931;28;20581;-53
2022/08/24 01:34:20;;;;;;;5.30;4.13;;;;;;;18.92;63.85;98659.84;4085971;28;20232;-53
2022/08/24 01:36:50;;;;;;;3.67;3.38;;;;;;;18.90;63.82;98662.91;4087748;29;20212;-53
2022/08/24 01:38:53;;;;;;;4.22;3.70;;;;;;;18.89;64.00;98663.22;4086065;28;20244;-53
2022/08/24 01:40:57;;;;;;;4.07;3.75;;;;;;;18.85;64.05;98659.41;4084688;28;20830;-52
2022/08/24 01:42:59;;;;;;;4.22;3.85;;;;;;;18.81;64.09;98663.88;4088694;28;20715;-56
2022/08/24 01:45:03;;;;;;;4.20;3.80;;;;;;;18.78;64.37;98658.94;4103563;28;20207;-52
2022/08/24 01:47:07;;;;;;;4.65;4.25;;;;;;;18.74;64.47;98668.97;4103832;28;20238;-53
2022/08/24 01:49:09;;;;;;;4.82;3.38;;;;;;;18.68;64.39;98662.69;4089669;28;20203;-54
2022/08/24 01:51:11;;;;;;;3.75;3.45;;;;;;;18.62;64.80;98671.38;4088518;28;20216;-53
2022/08/24 01:53:13;;;;;;;4.90;4.38;;;;;;;18.30;65.99;98665.66;4087106;28;20560;-56
2022/08/24 01:55:15;;;;;;;3.67;3.33;;;;;;;18.37;65.49;98669.75;4085209;28;20285;-53
2022/08/24 01:57:25;;;;;;;4.45;4.10;;;;;;;18.37;65.60;98669.75;4100344;28;20234;-53
2022/08/24 01:59:28;;;;;;;4.35;3.95;;;;;;;18.38;65.36;98673.38;4095272;28;20210;-53
2022/08/24 02:01:31;;;;;;;4.47;4.18;;;;;;;18.38;65.37;98673.38;4084906;28;20211;-54
2022/08/24 02:03:33;;;;;;;4.32;3.92;;;;;;;18.41;65.01;98670.81;4101721;28;20301;-55
2022/08/24 02:05:35;;;;;;;3.78;3.40;;;;;;;18.44;64.96;98672.19;4087846;28;20202;-55
2022/08/24 02:07:37;;;;;;;4.50;4.05;;;;;;;18.42;65.24;98671.63;4070926;29;20271;-54
2022/08/24 02:09:39;;;;;;;4.28;3.83;;;;;;;18.36;64.85;98678.34;4084503;28;20211;-54
2022/08/24 02:11:42;;;;;;;4.57;4.13;;;;;;;18.32;65.30;98671.78;4087254;28;20211;-55
2022/08/24 02:13:43;;;;;;;3.80;3.50;;;;;;;18.30;65.37;98682.28;4102771;28;20223;-53
2022/08/24 02:15:45;;;;;;;6.18;4.07;;;;;;;18.28;65.55;98681.75;4087182;28;20207;-54
2022/08/24 02:17:48;;;;;;;4.80;4.40;;;;;;;18.26;65.75;98686.78;4099898;28;20767;-55
2022/08/24 02:19:50;;;;;;;4.85;4.18;;;;;;;18.24;65.56;98683.50;4101215;28;20215;-54
2022/08/24 02:21:51;;;;;;;4.88;3.72;;;;;;;18.23;65.54;98684.56;4084438;28;20242;-54
2022/08/24 02:23:53;;;;;;;4.22;3.67;;;;;;;18.24;65.54;98684.28;4087336;28;20761;-54
2022/08/24 02:25:55;;;;;;;4.05;3.75;;;;;;;18.14;65.66;98691.91;4104620;28;20207;-53
2022/08/24 02:27:58;;;;;;;4.22;3.83;;;;;;;18.14;65.57;98697.44;4103069;28;20227;-52
2022/08/24 02:30:00;;;;;;;4.18;3.83;;;;;;;18.04;65.76;98692.03;4065952;29;20657;-54
2022/08/24 02:32:03;;;;;;;3.85;3.55;;;;;;;17.67;66.82;98702.91;4089632;28;20266;-53
2022/08/24 02:34:05;;;;;;;4.15;3.75;;;;;;;17.77;66.78;98713.88;4088755;28;20306;-52
2022/08/24 02:36:08;;;;;;;4.15;3.85;;;;;;;17.89;66.24;98700.47;4085427;28;20203;-53
2022/08/24 02:38:27;;;;;;;4.25;3.90;;;;;;;17.94;66.22;98694.88;4098108;28;20206;-54
2022/08/24 02:40:29;;;;;;;3.90;3.28;;;;;;;17.88;66.19;98693.28;4087653;28;20220;-53
2022/08/24 02:42:31;;;;;;;8.00;3.85;;;;;;;17.84;66.34;98692.25;4101231;28;20728;-55
2022/08/24 02:44:32;;;;;;;4.38;4.07;;;;;;;17.83;66.42;98702.47;4090699;29;20217;-53
2022/08/24 02:46:34;;;;;;;4.38;4.00;;;;;;;17.82;66.24;98694.47;4090740;28;20223;-52
2022/08/24 02:48:36;;;;;;;3.50;3.20;;;;;;;17.82;66.36;98697.22;4097971;28;20239;-53
2022/08/24 02:50:43;;;;;;;3.60;3.28;;;;;;;17.75;66.47;98699.50;4093829;28;20263;-57
2022/08/24 02:52:45;;;;;;;3.78;3.47;;;;;;;17.80;66.19;98696.69;4092037;28;20206;-53
2022/08/24 02:54:47;;;;;;;4.32;3.92;;;;;;;17.82;66.07;98695.28;4087341;28;20284;-53
2022/08/24 02:56:49;;;;;;;6.40;3.83;;;;;;;17.84;66.16;98695.00;4088098;28;20254;-56
2022/08/24 02:58:51;;;;;;;3.47;3.17;;;;;;;17.80;66.05;98694.75;4091255;28;20207;-53
2022/08/24 03:00:54;;;;;;;4.07;3.78;;;;;;;17.78;66.00;98693.41;4092478;28;20253;-52
2022/08/24 03:02:56;;;;;;;4.07;3.67;;;;;;;17.75;66.06;98689.28;4090313;29;20405;-53
2022/08/24 03:04:58;;;;;;;4.05;3.75;;;;;;;17.73;66.25;98685.94;4088232;29;20677;-52
2022/08/24 03:07:01;;;;;;;3.75;3.45;;;;;;;17.76;66.37;98696.47;4103280;28;20671;-53
2022/08/24 03:09:03;;;;;;;4.32;3.67;;;;;;;17.72;66.73;98691.81;4076528;29;20208;-54
2022/08/24 03:11:06;;;;;;;5.20;3.33;;;;;;;17.71;66.71;98690.97;4086395;28;20207;-53
2022/08/24 03:13:08;;;;;;;3.55;3.35;;;;;;;17.71;66.47;98696.50;4106158;28;20206;-53
2022/08/24 03:15:11;;;;;;;6.10;2.97;;;;;;;17.73;66.46;98685.16;4105848;28;20233;-54
2022/08/24 03:17:13;;;;;;;5.47;4.20;;;;;;;17.76;66.34;98687.31;4108892;28;20301;-54
2022/08/24 03:19:15;;;;;;;3.90;3.53;;;;;;;17.75;66.32;98688.44;4089449;28;20219;-53
2022/08/24 03:21:17;;;;;;;4.82;3.60;;;;;;;17.73;66.47;98691.50;4092697;28;20591;-55
2022/08/24 03:23:19;;;;;;;3.97;3.67;;;;;;;17.72;66.72;98691.81;4107447;28;20211;-55
2022/08/24 03:25:23;;;;;;;4.20;3.83;;;;;;;17.71;66.54;98692.94;4090366;28;20286;-52
2022/08/24 03:27:25;;;;;;;4.63;4.22;;;;;;;17.65;66.83;98694.09;4102584;28;20234;-53
2022/08/24 03:29:27;;;;;;;4.18;3.88;;;;;;;17.57;67.01;98692.75;4110230;28;20215;-52
2022/08/24 03:31:34;;;;;;;4.20;3.78;;;;;;;17.50;67.37;98688.66;4105872;28;20207;-54
2022/08/24 03:33:36;;;;;;;3.42;3.20;;;;;;;17.45;67.38;98685.97;4106440;28;20590;-53
2022/08/24 03:35:38;;;;;;;4.28;3.97;;;;;;;17.40;67.33;98686.81;4092924;28;20257;-55
2022/08/24 03:37:40;;;;;;;4.60;4.20;;;;;;;17.37;67.71;98686.56;4088750;28;20231;-55
2022/08/24 03:39:42;;;;;;;4.28;3.97;;;;;;;17.26;68.22;98682.22;4105113;28;20273;-54
2022/08/24 03:41:44;;;;;;;4.28;3.90;;;;;;;17.27;68.44;98681.09;4107094;28;20242;-53
2022/08/24 03:43:45;;;;;;;4.00;3.70;;;;;;;17.30;67.98;98686.03;4092359;28;20768;-56
2022/08/24 03:45:47;;;;;;;4.28;3.88;;;;;;;17.28;68.02;98678.06;4089086;28;20211;-53
2022/08/24 03:47:49;;;;;;;4.43;4.13;;;;;;;17.12;68.31;98684.00;4104863;28;20322;-54
2022/08/24 03:49:52;;;;;;;4.53;4.05;;;;;;;16.99;68.68;98684.63;4105469;28;20221;-52
2022/08/24 03:51:54;;;;;;;4.30;3.92;;;;;;;17.03;68.52;98685.69;4105998;28;20203;-53
2022/08/24 03:53:57;;;;;;;4.65;4.25;;;;;;;17.07;68.21;98681.25;4100944;28;20917;-52
2022/08/24 03:55:59;;;;;;;4.80;4.28;;;;;;;17.15;67.95;98677.88;4089507;28;20909;-53
2022/08/24 03:58:07;;;;;;;4.15;3.75;;;;;;;17.13;68.16;98680.13;4090128;28;20209;-54
2022/08/24 04:00:11;;;;;;;4.28;3.88;;;;;;;17.13;67.95;98680.13;4103833;28;20215;-56
2022/08/24 04:02:13;;;;;;;3.78;3.33;;;;;;;17.13;67.89;98680.13;4102162;28;20219;-54
2022/08/24 04:04:15;;;;;;;5.75;4.10;;;;;;;17.15;67.74;98678.72;4100547;28;20211;-56
2022/08/24 04:06:18;;;;;;;3.97;3.47;;;;;;;17.15;67.93;98683.41;4075263;29;21042;-54
2022/08/24 04:08:20;;;;;;;3.60;3.30;;;;;;;17.14;67.86;98690.06;4092200;28;20279;-53
2022/08/24 04:10:21;;;;;;;3.95;3.65;;;;;;;17.11;67.93;98693.41;4091929;28;20900;-53
2022/08/24 04:12:23;;;;;;;4.38;4.05;;;;;;;17.09;67.86;98695.63;4091180;28;20711;-53
2022/08/24 04:14:25;;;;;;;5.22;4.82;;;;;;;17.08;68.05;98699.50;4087431;28;20232;-52
2022/08/24 04:16:29;;;;;;;4.50;4.00;;;;;;;17.09;68.14;98701.16;4107249;28;20226;-52
2022/08/24 04:18:30;;;;;;;4.18;3.88;;;;;;;17.09;67.96;98709.44;4091212;28;20259;-53
2022/08/24 04:20:40;;;;;;;4.20;3.90;;;;;;;17.06;67.90;98710.03;4089060;28;20266;-55
2022/08/24 04:22:42;;;;;;;4.55;3.53;;;;;;;17.02;68.03;98707.00;4093252;28;20211;-52
2022/08/24 04:24:46;;;;;;;4.45;4.10;;;;;;;17.01;67.78;98704.53;4086583;28;20305;-52
2022/08/24 04:26:47;;;;;;;4.18;3.88;;;;;;;17.02;68.17;98706.16;4089677;28;20227;-53
2022/08/24 04:28:50;;;;;;;4.15;3.85;;;;;;;17.01;68.14;98710.06;4089140;28;20203;-53
2022/08/24 04:30:52;;;;;;;4.68;4.32;;;;;;;16.99;68.18;98704.00;4092164;28;20211;-53
2022/08/24 04:32:54;;;;;;;4.65;3.88;;;;;;;16.98;68.21;98715.34;4108708;28;20262;-53
2022/08/24 04:34:57;;;;;;;4.18;3.80;;;;;;;16.95;68.27;98708.44;4089007;28;21103;-52
2022/08/24 04:36:59;;;;;;;4.63;3.75;;;;;;;16.94;68.28;98715.09;4087679;28;20239;-53
2022/08/24 04:39:02;;;;;;;4.18;3.88;;;;;;;16.95;68.27;98715.91;4090514;29;20211;-55
2022/08/24 04:41:06;;;;;;;3.80;3.55;;;;;;;16.80;69.14;98714.06;4091581;28;21149;-54
2022/08/24 04:43:14;;;;;;;5.20;4.68;;;;;;;16.77;69.09;98702.75;4074650;29;20216;-54
2022/08/24 04:45:20;;;;;;;4.68;4.28;;;;;;;16.77;69.00;98709.09;4089127;28;20294;-52
2022/08/24 04:47:23;;;;;;;4.65;4.25;;;;;;;16.78;68.87;98705.25;4089479;28;20709;-53
2022/08/24 04:49:24;;;;;;;4.30;4.00;;;;;;;16.78;68.94;98710.78;4107540;28;20206;-52
2022/08/24 04:51:26;;;;;;;4.43;4.10;;;;;;;16.78;69.14;98710.78;4089032;28;20262;-54
2022/08/24 04:53:37;;;;;;;4.53;4.18;;;;;;;16.83;68.92;98713.47;4090537;28;20211;-55
2022/08/24 04:55:48;;;;;;;4.88;4.43;;;;;;;16.82;69.10;98714.59;4076711;29;20328;-55
2022/08/24 04:57:50;;;;;;;8.75;5.63;;;;;;;16.81;68.93;98712.94;4086763;28;21361;-53
2022/08/24 04:59:55;;;;;;;17.55;5.00;;;;;;;16.85;69.09;98716.81;4088479;28;20281;-52
2022/08/24 05:01:57;;;;;;;7.90;4.75;;;;;;;16.89;69.15;98728.94;4088706;29;20261;-56
2022/08/24 05:03:59;;;;;;;8.63;4.35;;;;;;;16.91;69.00;98731.41;4086669;28;20737;-53
2022/08/24 05:06:01;;;;;;;5.32;4.53;;;;;;;16.91;69.00;98731.41;4104420;28;20235;-53
2022/08/24 05:08:02;;;;;;;4.63;4.22;;;;;;;16.94;69.10;98737.19;4090164;28;20236;-53
2022/08/24 05:10:06;;;;;;;8.30;4.60;;;;;;;17.02;68.94;98740.19;4103289;28;20581;-52
2022/08/24 05:12:10;;;;;;;4.63;3.92;;;;;;;17.00;69.11;98736.06;4086263;29;20207;-54
2022/08/24 05:14:12;;;;;;;6.25;4.82;;;;;;;17.02;69.14;98731.06;4090599;28;20676;-54
2022/08/24 05:16:16;;;;;;;5.07;3.95;;;;;;;17.08;68.99;98737.41;4109051;28;20210;-52
2022/08/24 05:18:18;;;;;;;5.88;4.28;;;;;;;17.10;68.96;98736.81;4088962;28;20211;-52
2022/08/24 05:20:22;;;;;;;4.18;3.88;;;;;;;17.09;68.76;98734.34;4091293;28;20207;-53
2022/08/24 05:22:24;;;;;;;4.05;3.72;;;;;;;17.13;68.65;98740.97;4106021;28;20211;-52
2022/08/24 05:24:27;;;;;;;4.18;3.80;;;;;;;17.13;68.94;98735.44;4104470;28;20218;-53
2022/08/24 05:26:29;;;;;;;4.68;4.35;;;;;;;17.10;69.11;98735.97;4071918;29;20224;-52
2022/08/24 05:28:34;;;;;;;4.25;3.85;;;;;;;17.10;68.98;98739.59;4102920;28;20699;-52
2022/08/24 05:30:36;;;;;;;6.05;5.35;;;;;;;17.13;69.12;98740.97;4089530;28;20262;-53
2022/08/24 05:32:43;;;;;;;6.13;4.55;;;;;;;17.13;69.25;98740.97;4103893;28;20249;-53
2022/08/24 05:34:44;;;;;;;13.30;4.85;;;;;;;17.15;69.66;98744.25;4089863;28;20274;-53
2022/08/24 05:36:46;;;;;;;32.50;6.22;;;;;;;17.18;69.40;98749.22;4086902;28;20278;-53
2022/08/24 05:38:49;;;;;;;21.27;6.53;;;;;;;17.17;69.60;98740.09;4104417;28;20223;-52
2022/08/24 05:40:51;;;;;;;15.65;6.22;;;;;;;17.11;69.78;98748.72;4091281;28;20204;-53
2022/08/24 05:42:53;;;;;;;23.05;6.03;;;;;;;17.27;69.32;98753.03;4102862;28;20234;-53
2022/08/24 05:44:55;;;;;;;16.13;5.80;;;;;;;17.36;69.43;98752.13;4102652;28;20910;-53
2022/08/24 05:46:57;;;;;;;11.13;6.28;;;;;;;17.51;69.43;98759.53;4103325;28;20262;-52
2022/08/24 05:49:00;;;;;;;11.20;5.65;;;;;;;17.66;69.19;98759.41;4106455;28;20210;-52
2022/08/24 05:51:02;;;;;;;12.77;5.65;;;;;;;17.66;68.67;98756.63;4089534;29;20211;-53
2022/08/24 05:53:03;;;;;;;10.38;5.13;;;;;;;17.73;68.04;98760.69;4085660;28;20269;-53
2022/08/24 05:55:06;;;;;;;13.10;6.10;;;;;;;17.78;68.30;98759.84;4100794;28;21020;-53
2022/08/24 05:57:08;;;;;;;18.75;5.05;;;;;;;18.03;67.88;98762.38;4087994;28;20239;-53
2022/08/24 05:59:10;;;;;;;11.65;4.97;;;;;;;18.27;68.27;98757.69;4084777;28;20211;-52
2022/08/24 06:01:17;;;;;;;8.25;4.78;;;;;;;18.49;67.87;98760.78;4088103;28;20214;-52
2022/08/24 06:03:19;;;;;;;9.15;5.57;;;;;;;18.60;67.16;98756.78;4103267;28;20663;-53
2022/08/24 06:05:21;;;;;;;8.48;4.05;;;;;;;18.79;65.60;98765.97;4083673;28;20212;-52
2022/08/24 06:07:23;;;;;;;5.95;4.75;;;;;;;19.00;65.52;98765.41;4087011;28;20223;-52
2022/08/24 06:09:24;;;;;;;4.97;4.20;;;;;;;19.09;64.25;98765.56;4103543;28;20199;-53
2022/08/24 06:11:34;;;;;;;4.68;4.28;;;;;;;18.89;63.80;98765.81;4104716;28;20237;-53
2022/08/24 06:13:36;;;;;;;5.35;3.90;;;;;;;18.98;63.86;98762.09;4087906;28;20208;-52
2022/08/24 06:15:38;;;;;;;5.55;3.75;;;;;;;19.21;63.48;98768.75;4082624;28;20236;-53
2022/08/24 06:17:40;;;;;;;6.70;4.20;;;;;;;19.25;63.59;98772.59;4084701;28;20231;-52
2022/08/24 06:19:42;;;;;;;4.13;3.35;;;;;;;19.30;63.68;98775.25;4085404;28;20295;-53
2022/08/24 06:21:47;;;;;;;6.22;3.65;;;;;;;19.37;62.67;98772.97;4082447;28;20629;-53
2022/08/24 06:23:50;;;;;;;9.43;3.53;;;;;;;19.27;62.37;98773.09;4086212;28;20211;-52
2022/08/24 06:28:16;;;;;;;3.63;3.33;;;;;;;19.40;62.18;98778.75;4088604;28;21133;-52
2022/08/24 06:30:18;;;;;;;8.70;3.58;;;;;;;19.22;62.51;98775.94;4087286;28;20606;-53
2022/08/24 06:32:21;;;;;;;3.60;2.95;;;;;;;19.28;62.45;98770.03;4103722;28;20207;-52
2022/08/24 06:34:24;;;;;;;7.00;3.38;;;;;;;19.18;62.55;98772.09;4086523;28;20199;-52
2022/08/24 06:36:26;;;;;;;4.80;3.45;;;;;;;19.24;63.05;98770.94;4103148;28;20234;-53
2022/08/24 06:38:29;;;;;;;3.40;3.10;;;;;;;19.46;62.99;98782.25;4087903;28;20207;-53
2022/08/24 06:40:32;;;;;;;3.83;3.13;;;;;;;19.78;62.02;98774.78;4102384;28;20826;-53
2022/08/24 06:42:34;;;;;;;5.72;2.88;;;;;;;19.90;61.25;98774.31;4090246;28;20214;-51
2022/08/24 06:44:36;;;;;;;4.03;3.10;;;;;;;20.04;61.62;98775.19;4104512;28;21373;-52
2022/08/24 06:46:38;;;;;;;8.00;2.90;;;;;;;20.52;60.46;98774.56;4088878;28;20246;-53
2022/08/24 06:48:40;;;;;;;5.72;3.10;;;;;;;20.94;59.40;98779.03;4105787;28;20712;-52
2022/08/24 06:50:42;;;;;;;4.40;3.30;;;;;;;21.24;58.66;98781.16;4101933;28;20261;-53
2022/08/24 06:52:43;;;;;;;3.15;2.78;;;;;;;21.39;58.15;98780.81;4104283;28;20212;-52
2022/08/24 06:54:45;;;;;;;9.43;2.42;;;;;;;21.59;58.11;98783.13;4085026;28;20211;-53
2022/08/24 06:56:47;;;;;;;5.28;2.33;;;;;;;21.68;57.44;98782.09;4085993;28;20241;-52
2022/08/24 06:58:49;;;;;;;3.72;2.67;;;;;;;21.94;56.96;98787.84;4082775;28;20208;-51
2022/08/24 07:00:51;;;;;;;1.88;1.75;;;;;;;21.97;56.74;98785.25;4085591;28;20664;-52
2022/08/24 07:02:53;;;;;;;2.75;2.50;;;;;;;22.06;56.41;98786.16;4101447;28;20310;-53
2022/08/24 07:04:55;;;;;;;2.33;1.92;;;;;;;22.08;56.37;98777.44;4084376;28;20243;-53
2022/08/24 07:06:57;;;;;;;5.95;2.13;;;;;;;22.14;56.03;98787.31;4089390;28;20696;-52
2022/08/24 07:08:58;;;;;;;3.45;2.60;;;;;;;22.12;56.04;98786.84;4103704;28;20205;-52
2022/08/24 07:11:01;;;;;;;3.40;1.90;;;;;;;22.21;56.04;98785.75;4071668;29;20290;-52
2022/08/24 07:13:03;;;;;;;2.85;1.98;;;;;;;22.37;55.93;98789.75;4086522;28;20286;-52
2022/08/24 07:15:05;;;;;;;4.40;2.50;;;;;;;22.51;55.66;98784.13;4091855;28;20231;-52
2022/08/24 07:17:17;;;;;;;2.47;2.28;;;;;;;22.68;55.24;98785.03;4101955;28;20226;-52
2022/08/24 07:19:19;;;;;;;4.20;2.53;;;;;;;22.76;54.95;98789.03;4103177;28;20615;-53
2022/08/24 07:21:21;;;;;;;2.78;2.05;;;;;;;22.74;55.23;98794.09;4102854;28;20250;-52
2022/08/24 07:23:23;;;;;;;2.28;2.05;;;;;;;22.94;54.72;98793.50;4103499;28;20407;-52
2022/08/24 07:25:48;;;;;;;2.38;2.17;;;;;;;23.04;54.39;98798.81;4086057;29;20215;-53
2022/08/24 07:27:57;;;;;;;4.72;2.25;;;;;;;23.34;54.05;98786.72;4069811;29;20299;-52
2022/08/24 07:29:59;;;;;;;3.90;1.90;;;;;;;23.45;53.17;98791.66;4087541;28;20232;-52
2022/08/24 07:32:21;;;;;;;3.33;2.28;;;;;;;23.61;52.80;98792.03;4099970;28;20221;-51
2022/08/24 07:34:23;;;;;;;7.20;2.33;;;;;;;23.98;52.47;98797.00;4087524;28;20222;-53
2022/08/24 07:36:25;;;;;;;3.85;3.42;;;;;;;24.23;51.94;98795.00;4108752;28;20238;-52
2022/08/24 07:38:29;;;;;;;3.72;2.10;;;;;;;24.40;51.70;98800.53;4106710;28;20771;-53
2022/08/24 07:40:31;;;;;;;4.80;2.45;;;;;;;24.51;51.74;98796.22;4106472;28;20207;-52
2022/08/24 07:42:54;;;;;;;5.82;2.47;;;;;;;24.84;50.51;98797.31;4088388;28;20207;-52
2022/08/24 07:44:56;;;;;;;2.92;1.95;;;;;;;24.40;50.75;98800.53;4093081;28;20285;-52
2022/08/24 07:46:58;;;;;;;6.13;2.17;;;;;;;24.77;50.23;98799.81;4091886;28;20242;-52
2022/08/24 07:49:19;;;;;;;7.40;2.20;;;;;;;24.76;50.55;98798.16;4089269;28;20214;-52
2022/08/24 07:51:37;;;;;;;1.83;1.70;;;;;;;24.66;50.76;98803.31;4104197;28;20210;-52
2022/08/24 07:53:44;;;;;;;3.53;2.58;;;;;;;24.58;51.10;98804.97;4087951;28;20719;-52
2022/08/24 07:55:55;;;;;;;4.68;2.20;;;;;;;24.57;51.17;98811.72;4089274;28;20321;-52
2022/08/24 07:57:58;;;;;;;10.23;2.45;;;;;;;24.78;50.55;98818.25;4090031;28;20724;-52
2022/08/24 08:00:01;;;;;;;2.88;2.40;;;;;;;24.93;50.47;98812.06;4085611;28;20227;-53
2022/08/24 08:02:07;;;;;;;7.57;2.50;;;;;;;24.77;50.01;98816.59;4087129;28;20215;-52
2022/08/24 08:04:09;;;;;;;2.92;2.13;;;;;;;24.90;50.46;98809.97;4075183;29;20220;-53
2022/08/24 08:06:11;;;;;;;2.67;2.47;;;;;;;24.99;49.75;98807.94;4076543;29;20219;-52
2022/08/24 08:08:16;;;;;;;6.63;2.33;;;;;;;25.24;50.07;98807.03;4087811;28;20669;-52
2022/08/24 08:10:18;;;;;;;2.97;1.80;;;;;;;25.68;49.60;98809.22;4089914;28;20207;-53
2022/08/24 08:12:20;;;;;;;2.80;2.03;;;;;;;25.86;48.44;98813.50;4104565;28;20222;-52
2022/08/24 08:14:22;;;;;;;2.72;2.40;;;;;;;25.60;47.26;98812.88;4086394;28;20211;-53
2022/08/24 08:16:25;;;;;;;4.07;2.50;;;;;;;25.48;48.11;98814.78;4085890;28;20274;-53
2022/08/24 08:18:27;;;;;;;2.67;2.25;;;;;;;25.33;48.58;98819.00;4103627;28;20897;-51
2022/08/24 08:20:29;;;;;;;5.43;2.05;;;;;;;25.90;47.94;98817.31;4090574;28;20227;-52
2022/08/24 08:24:53;;;;;;;22.67;2.58;;;;;;;26.26;47.98;98817.47;4068720;28;20223;-53
2022/08/24 08:26:56;;;;;;;3.35;2.10;;;;;;;26.56;47.01;98819.00;4083266;28;20274;-53
2022/08/24 08:28:58;;;;;;;2.72;2.30;;;;;;;26.52;46.39;98822.84;4102495;28;20674;-52
2022/08/24 08:31:01;;;;;;;4.60;1.95;;;;;;;26.90;46.42;98824.22;4103522;28;20619;-52
2022/08/24 08:33:04;;;;;;;3.58;2.20;;;;;;;27.18;45.28;98813.97;4088016;28;20720;-53
2022/08/24 08:35:06;;;;;;;4.45;2.30;;;;;;;27.35;45.14;98812.91;4103553;28;20301;-53
2022/08/24 08:37:09;;;;;;;5.38;2.97;;;;;;;27.55;45.17;98815.59;4072690;29;20705;-51
2022/08/24 08:39:13;;;;;;;5.43;2.22;;;;;;;27.80;44.29;98814.41;4107126;28;20277;-53
2022/08/24 08:41:17;;;;;;;4.80;1.75;;;;;;;27.90;43.95;98807.47;4084247;28;20681;-51
2022/08/24 08:43:42;;;;;;;2.58;2.17;;;;;;;28.14;43.58;98808.22;4101478;28;20276;-52
2022/08/24 08:46:25;;;;;;;2.92;2.33;;;;;;;28.15;43.63;98807.03;4090234;29;20238;-51
2022/08/24 08:49:02;;;;;;;2.15;1.75;;;;;;;28.83;41.94;98808.59;4040748;29;20264;-51
2022/08/24 08:51:24;;;;;;;5.53;1.90;;;;;;;28.96;42.53;98801.72;4019515;29;20274;-53
2022/08/24 08:53:57;;;;;;;2.80;2.33;;;;;;;29.28;42.17;98797.69;4054029;29;20271;-52
2022/08/24 08:56:22;;;;;;;4.45;2.25;;;;;;;29.48;41.23;98801.38;4086211;28;20242;-53
2022/08/24 08:58:54;;;;;;;7.90;1.92;;;;;;;29.59;41.34;98794.84;4069250;29;20219;-52
2022/08/24 09:01:23;;;;;;;3.13;2.10;;;;;;;29.78;41.51;98794.09;4075784;29;20212;-53
2022/08/24 09:03:29;;;;;;;3.33;1.92;;;;;;;29.79;40.99;98799.34;4089462;28;20215;-53
2022/08/24 09:06:04;;;;;;;2.13;1.85;;;;;;;29.95;41.12;98794.47;4073658;29;20211;-51
2022/08/24 09:08:27;;;;;;;4.53;2.03;;;;;;;29.46;39.53;98798.94;4057280;29;20242;-52
2022/08/24 09:10:55;;;;;;;3.65;1.63;;;;;;;29.79;40.62;98795.72;4069390;29;20982;-52
2022/08/24 09:13:12;;;;;;;4.13;2.28;;;;;;;29.92;40.16;98789.53;4086780;28;20266;-53
2022/08/24 09:15:44;;;;;;;7.05;1.70;;;;;;;29.92;39.03;98783.91;4076338;29;20244;-52
2022/08/24 09:18:36;;;;;;;4.30;2.17;;;;;;;30.34;39.86;98796.16;4075652;29;20231;-52
2022/08/24 09:21:05;;;;;;;7.32;1.50;;;;;;;30.42;39.82;98786.63;4058073;29;20211;-52
2022/08/24 09:23:17;;;;;;;2.83;2.28;;;;;;;30.48;39.45;98790.78;4044490;29;20304;-53
2022/08/24 09:25:25;;;;;;;6.47;1.70;;;;;;;30.65;38.68;98793.13;4051893;29;20223;-51
2022/08/24 09:27:50;;;;;;;3.05;2.28;;;;;;;30.44;37.58;98789.88;4076777;29;20342;-51
2022/08/24 09:30:17;;;;;;;3.97;1.90;;;;;;;30.35;37.65;98788.47;4087831;28;20234;-52
2022/08/24 09:32:47;;;;;;;2.13;1.40;;;;;;;30.85;37.54;98799.59;4092841;28;20772;-51
2022/08/24 09:35:04;;;;;;;2.60;1.65;;;;;;;31.29;37.32;98798.78;4076514;29;20207;-51
2022/08/24 09:37:08;;;;;;;2.63;1.27;;;;;;;31.06;35.79;98795.09;4074317;29;20267;-52
2022/08/24 09:39:21;;;;;;;6.35;1.40;;;;;;;31.66;36.06;98785.63;4092443;28;20306;-51
2022/08/24 09:41:43;;;;;;;1.80;1.25;;;;;;;31.48;35.29;98784.53;4079850;29;20246;-52
2022/08/24 09:43:57;;;;;;;1.85;1.10;;;;;;;31.04;34.26;98780.53;4078397;29;20207;-51
2022/08/24 09:46:06;;;;;;;3.15;1.58;;;;;;;31.33;34.98;98782.69;4076314;29;20241;-52
2022/08/24 09:48:47;;;;;;;2.15;1.25;;;;;;;30.99;34.88;98783.66;4074832;29;20270;-52
2022/08/24 09:51:04;;;;;;;6.03;2.17;;;;;;;31.02;34.86;98782.94;4074456;29;20211;-51
2022/08/24 09:53:05;;;;;;;4.55;1.75;;;;;;;31.68;34.86;98777.56;4075008;29;20222;-51
2022/08/24 09:55:30;;;;;;;1.50;1.38;;;;;;;31.78;33.85;98776.91;4077241;29;20756;-51
2022/08/24 09:57:35;;;;;;;2.10;1.35;;;;;;;31.53;34.46;98775.72;4080470;29;20219;-51
2022/08/24 10:00:23;;;;;;;2.00;1.50;;;;;;;32.06;34.02;98774.50;4079602;29;20247;-51